createdAt,value
2022-09-28T00:02:09.475Z,38.39
2022-09-28T00:05:27.173Z,38.56
2022-09-28T00:09:06.329Z,39.17
2022-09-28T00:12:43.744Z,38.95
2022-09-28T00:16:24.174Z,39.01
2022-09-28T00:20:02.868Z,39.33
2022-09-28T00:23:42.040Z,39.18
2022-09-28T00:27:20.474Z,39.39
2022-09-28T00:30:59.869Z,39.13
2022-09-28T00:34:40.545Z,38.94
2022-09-28T00:38:20.016Z,38.94
2022-09-28T00:41:57.224Z,39.35
2022-09-28T00:45:36.185Z,38.96
2022-09-28T00:49:19.003Z,39.05
2022-09-28T00:53:23.996Z,39.18
2022-09-28T00:57:04.014Z,39.15
2022-09-28T01:00:42.966Z,39.41
2022-09-28T01:04:23.522Z,39.25
2022-09-28T01:08:04.756Z,39.55
2022-09-28T01:11:43.462Z,39.29
2022-09-28T01:15:21.792Z,39.25
2022-09-28T01:19:32.595Z,39.75
2022-09-28T01:23:58.094Z,39.78
2022-09-28T01:28:10.326Z,39.58
2022-09-28T01:31:56.857Z,39.59
2022-09-28T01:35:50.765Z,39.39
2022-09-28T01:39:35.847Z,39.59
2022-09-28T01:43:28.101Z,40.29
2022-09-28T01:47:11.047Z,39.76
2022-09-28T01:50:54.129Z,39.89
2022-09-28T01:54:43.566Z,39.99
2022-09-28T01:58:38.301Z,39.77
2022-09-28T02:02:20.080Z,40.06
2022-09-28T02:06:06.328Z,40.21
2022-09-28T02:10:03.836Z,40.39
2022-09-28T02:13:59.334Z,40.19
2022-09-28T02:17:36.537Z,40.23
2022-09-28T02:21:32.732Z,40.63
2022-09-28T02:25:38.764Z,40.16
2022-09-28T02:29:16.405Z,40.20
2022-09-28T02:32:58.410Z,40.61
2022-09-28T02:36:35.938Z,40.58
2022-09-28T02:40:29.084Z,40.78
2022-09-28T02:44:40.109Z,40.59
2022-09-28T02:48:44.143Z,40.41
2022-09-28T02:52:38.319Z,40.74
2022-09-28T02:56:24.351Z,40.91
2022-09-28T03:00:20.230Z,40.97
2022-09-28T03:04:09.535Z,40.82
2022-09-28T03:08:21.307Z,40.85
2022-09-28T03:12:08.405Z,41.07
2022-09-28T03:15:48.510Z,41.49
2022-09-28T03:19:30.879Z,40.93
2022-09-28T03:23:25.039Z,41.09
2022-09-28T03:27:04.168Z,41.05
2022-09-28T03:30:42.062Z,40.74
2022-09-28T03:34:19.401Z,40.94
2022-09-28T03:37:57.556Z,40.86
2022-09-28T03:41:36.214Z,41.20
2022-09-28T03:45:14.581Z,41.28
2022-09-28T03:48:51.513Z,41.27
2022-09-28T03:52:28.588Z,41.25
2022-09-28T03:56:13.490Z,41.68
2022-09-28T03:59:52.183Z,41.84
2022-09-28T04:03:29.956Z,42.23
2022-09-28T04:07:09.366Z,42.56
2022-09-28T04:10:46.832Z,42.79
2022-09-28T04:14:24.118Z,43.09
2022-09-28T04:18:01.266Z,43.34
2022-09-28T04:21:39.274Z,43.66
2022-09-28T04:25:18.044Z,43.70
2022-09-28T04:28:55.191Z,43.60
2022-09-28T04:32:33.565Z,43.49
2022-09-28T04:36:11.282Z,43.52
2022-09-28T04:39:49.288Z,43.78
2022-09-28T04:43:27.375Z,43.59
2022-09-28T04:47:07.174Z,43.26
2022-09-28T04:50:44.070Z,43.54
2022-09-28T04:54:22.753Z,43.58
2022-09-28T04:58:00.109Z,43.71
2022-09-28T05:01:39.720Z,43.40
2022-09-28T05:05:16.967Z,43.80
2022-09-28T05:08:57.716Z,43.56
2022-09-28T05:12:35.523Z,43.64
2022-09-28T05:16:15.632Z,43.81
2022-09-28T05:19:53.716Z,43.33
2022-09-28T05:23:31.886Z,43.46
2022-09-28T05:27:14.458Z,43.71
2022-09-28T05:30:52.279Z,43.43
2022-09-28T05:34:30.053Z,43.67
2022-09-28T05:38:07.736Z,43.75
2022-09-28T05:41:45.819Z,43.62
2022-09-28T05:45:23.930Z,43.76
2022-09-28T05:49:00.808Z,43.76
2022-09-28T05:52:41.431Z,43.68
2022-09-28T05:56:25.237Z,43.70
2022-09-28T06:00:07.966Z,43.34
2022-09-28T06:03:47.363Z,43.40
2022-09-28T06:07:24.689Z,43.80
2022-09-28T06:11:02.945Z,43.21
2022-09-28T06:14:40.960Z,43.38
2022-09-28T06:18:19.458Z,43.87
2022-09-28T06:21:59.378Z,44.01
2022-09-28T06:25:37.157Z,44.02
2022-09-28T06:29:18.675Z,43.77
2022-09-28T06:32:58.481Z,43.71
2022-09-28T06:36:37.348Z,43.72
2022-09-28T06:40:14.980Z,43.51
2022-09-28T06:43:53.052Z,43.62
2022-09-28T06:47:31.966Z,43.45
2022-09-28T06:51:08.908Z,43.04
2022-09-28T06:54:45.841Z,42.69
2022-09-28T06:58:43.359Z,41.74
2022-09-28T07:02:03.376Z,41.35
2022-09-28T07:05:40.092Z,41.46
2022-09-28T07:09:31.613Z,41.23
2022-09-28T07:13:35.020Z,41.06
2022-09-28T07:17:14.183Z,40.90
2022-09-28T07:20:54.674Z,40.83
2022-09-28T07:24:31.849Z,40.59
2022-09-28T07:28:28.953Z,40.40
2022-09-28T07:31:47.179Z,39.96
2022-09-28T07:35:25.252Z,39.99
2022-09-28T07:39:03.606Z,39.94
2022-09-28T07:42:41.971Z,39.91
2022-09-28T07:46:19.543Z,39.44
2022-09-28T07:49:57.758Z,39.31
2022-09-28T07:53:36.369Z,39.02
2022-09-28T07:57:15.507Z,39.11
2022-09-28T08:00:52.957Z,38.91
2022-09-28T08:04:31.328Z,38.97
2022-09-28T08:08:10.479Z,38.48
2022-09-28T08:11:48.681Z,37.96
2022-09-28T08:15:27.053Z,37.84
2022-09-28T08:19:05.666Z,37.33
2022-09-28T08:22:42.828Z,37.02
2022-09-28T08:26:22.012Z,36.98
2022-09-28T08:29:59.247Z,37.12
2022-09-28T08:33:36.736Z,36.71
2022-09-28T08:37:14.215Z,36.77
2022-09-28T08:41:18.457Z,36.25
2022-09-28T08:45:06.490Z,36.44
2022-09-28T08:49:13.539Z,35.97
2022-09-28T08:52:59.823Z,35.69
2022-09-28T08:56:57.292Z,35.36
2022-09-28T09:00:52.879Z,34.85
2022-09-28T09:04:33.973Z,35.00
2022-09-28T09:08:25.464Z,34.29
2022-09-28T09:12:31.219Z,34.23
2022-09-28T09:16:12.337Z,34.32
2022-09-28T09:19:58.844Z,33.66
2022-09-28T09:23:57.446Z,33.28
2022-09-28T09:28:07.001Z,32.85
2022-09-28T09:31:49.148Z,32.96
2022-09-28T09:35:48.510Z,32.53
2022-09-28T09:39:38.788Z,32.06
2022-09-28T09:44:13.537Z,32.01
2022-09-28T09:48:02.665Z,31.78
2022-09-28T09:52:06.458Z,31.60
2022-09-28T09:55:51.697Z,31.17
2022-09-28T09:59:37.941Z,31.17
2022-09-28T10:03:30.459Z,30.73
2022-09-28T10:07:14.853Z,30.47
2022-09-28T10:11:07.550Z,30.12
2022-09-28T10:14:48.710Z,30.05
2022-09-28T10:18:27.401Z,29.58
2022-09-28T10:22:14.164Z,29.71
2022-09-28T10:25:43.490Z,29.43
2022-09-28T10:29:26.790Z,28.87
2022-09-28T10:33:03.998Z,28.91
2022-09-28T10:37:06.988Z,28.62
2022-09-28T10:40:47.595Z,28.41
2022-09-28T10:44:25.447Z,28.41
2022-09-28T10:48:20.837Z,28.16
2022-09-28T10:51:52.598Z,28.03
2022-09-28T10:55:27.088Z,27.77
2022-09-28T10:59:28.700Z,28.06
2022-09-28T11:03:23.459Z,27.75
2022-09-28T11:07:01.936Z,27.79
2022-09-28T11:10:38.793Z,27.59
2022-09-28T11:14:42.696Z,27.48
2022-09-28T11:17:53.855Z,27.45
2022-09-28T11:21:43.466Z,27.30
2022-09-28T11:25:32.018Z,27.14
2022-09-28T11:29:36.781Z,26.99
2022-09-28T11:33:18.987Z,26.97
2022-09-28T11:37:24.072Z,26.30
2022-09-28T11:41:07.737Z,26.34
2022-09-28T11:45:31.825Z,25.96
2022-09-28T11:48:29.109Z,25.66
2022-09-28T11:52:32.594Z,25.33
2022-09-28T11:56:40.409Z,25.20
2022-09-28T12:00:22.179Z,25.27
2022-09-28T12:04:09.524Z,24.72
2022-09-28T12:07:53.982Z,24.86
2022-09-28T12:11:36.561Z,24.61
2022-09-28T12:15:19.607Z,24.38
2022-09-28T12:19:04.615Z,24.00
2022-09-28T12:22:55.705Z,24.00
2022-09-28T12:26:38.982Z,24.11
2022-09-28T12:30:21.365Z,23.71
2022-09-28T12:33:58.313Z,23.28
2022-09-28T12:37:46.318Z,23.20
2022-09-28T12:41:35.173Z,22.98
2022-09-28T12:45:23.005Z,23.10
2022-09-28T12:53:59.788Z,23.01
2022-09-28T12:58:31.057Z,22.52
2022-09-28T13:01:33.339Z,22.59
2022-09-28T13:05:31.597Z,22.48
2022-09-28T13:09:22.658Z,22.54
2022-09-28T13:12:51.576Z,22.77
2022-09-28T13:16:10.600Z,22.77
2022-09-28T13:20:03.025Z,22.79
2022-09-28T13:23:34.019Z,22.78
2022-09-28T13:27:32.122Z,22.58
2022-09-28T13:31:20.306Z,22.72
2022-09-28T13:34:50.638Z,22.80
2022-09-28T13:38:31.079Z,22.75
2022-09-28T13:42:47.249Z,22.49
2022-09-28T13:45:59.399Z,22.51
2022-09-28T13:49:57.333Z,22.67
2022-09-28T13:54:12.735Z,22.55
2022-09-28T13:57:40.054Z,22.63
2022-09-28T14:01:25.477Z,22.66
2022-09-28T14:05:21.880Z,22.72
2022-09-28T14:09:07.462Z,22.79
2022-09-28T14:12:46.720Z,22.84
2022-09-28T14:16:26.492Z,22.70
2022-09-28T14:20:16.955Z,22.36
2022-09-28T14:24:24.102Z,22.29
2022-09-28T14:27:53.463Z,22.39
2022-09-28T14:31:28.649Z,22.51
2022-09-28T14:35:18.786Z,22.59
2022-09-28T14:38:56.665Z,22.64
2022-09-28T14:42:34.127Z,22.64
2022-09-28T14:46:13.986Z,22.74
2022-09-28T14:50:01.739Z,22.73
2022-09-28T14:53:50.081Z,22.72
2022-09-28T14:57:29.632Z,22.82
2022-09-28T15:01:02.504Z,22.84
2022-09-28T15:04:51.890Z,22.86
2022-09-28T15:08:21.214Z,22.91
2022-09-28T15:12:13.009Z,22.60
2022-09-28T15:16:04.609Z,22.97
2022-09-28T15:20:17.700Z,22.72
2022-09-28T15:23:40.389Z,22.70
2022-09-28T15:37:42.561Z,22.53
2022-09-28T15:40:38.134Z,22.31
2022-09-28T15:44:37.813Z,31.70
2022-09-28T15:48:48.703Z,35.90
2022-09-28T15:52:30.719Z,37.34
2022-09-28T15:56:12.506Z,39.66
2022-09-28T16:00:21.095Z,44.06
2022-09-28T16:03:29.880Z,45.02
2022-09-28T16:07:13.104Z,45.58
2022-09-28T16:11:15.531Z,46.83
2022-09-28T16:14:55.961Z,49.03
2022-09-28T16:18:35.209Z,50.84
2022-09-28T16:22:23.442Z,50.30
2022-09-28T16:26:06.007Z,51.39
2022-09-28T16:30:04.418Z,52.66
2022-09-28T16:33:30.608Z,54.20
2022-09-28T16:37:31.459Z,54.78
2022-09-28T16:41:09.600Z,54.94
2022-09-28T16:44:47.727Z,53.87
2022-09-28T16:48:30.649Z,54.79
2022-09-28T16:52:12.317Z,54.59
2022-09-28T16:55:53.481Z,55.26
2022-09-28T16:59:26.208Z,56.32
2022-09-28T17:03:14.363Z,56.96
2022-09-28T17:06:41.197Z,57.89
2022-09-28T17:10:27.884Z,59.25
2022-09-28T17:14:05.637Z,57.77
2022-09-28T17:17:42.642Z,56.77
2022-09-28T17:21:21.153Z,56.31
2022-09-28T17:25:00.555Z,55.74
2022-09-28T17:28:37.964Z,54.56
2022-09-28T17:32:19.208Z,53.46
2022-09-28T17:36:03.164Z,52.64
2022-09-28T17:39:42.479Z,51.75
2022-09-28T17:43:19.984Z,50.55
2022-09-28T17:47:02.135Z,50.51
2022-09-28T17:50:44.347Z,50.40
2022-09-28T17:54:23.439Z,49.75
2022-09-28T17:58:02.235Z,49.39
2022-09-28T18:02:02.012Z,49.08
2022-09-28T18:09:34.978Z,49.03
2022-09-28T18:13:14.645Z,48.93
2022-09-28T18:16:52.763Z,47.84
2022-09-28T18:20:31.228Z,47.52
2022-09-28T18:24:08.385Z,46.53
2022-09-28T18:27:46.264Z,45.91
2022-09-28T18:31:24.233Z,45.33
2022-09-28T18:35:01.613Z,44.47
2022-09-28T18:38:39.374Z,43.74
2022-09-28T18:42:17.219Z,44.40
2022-09-28T18:45:54.953Z,44.11
2022-09-28T18:49:31.927Z,44.04
2022-09-28T18:53:11.340Z,43.78
2022-09-28T18:56:49.104Z,42.88
2022-09-28T19:00:46.818Z,42.77
2022-09-28T19:04:05.702Z,42.71
2022-09-28T19:07:43.837Z,41.98
2022-09-28T19:11:22.403Z,41.36
2022-09-28T19:15:09.723Z,41.03
2022-09-28T19:18:47.757Z,41.10
2022-09-28T19:22:24.500Z,41.55
2022-09-28T19:26:03.104Z,41.42
2022-09-28T19:29:41.418Z,41.18
2022-09-28T19:33:18.671Z,41.48
2022-09-28T19:36:55.403Z,41.78
2022-09-28T19:40:36.524Z,41.77
2022-09-28T19:44:16.375Z,41.75
2022-09-28T19:47:58.682Z,42.08
2022-09-28T19:51:38.782Z,41.87
2022-09-28T19:55:21.571Z,41.48
2022-09-28T19:59:03.752Z,41.00
2022-09-28T20:02:42.312Z,40.82
2022-09-28T20:06:19.205Z,40.85
2022-09-28T20:09:56.357Z,40.78
2022-09-28T20:13:36.883Z,40.74
2022-09-28T20:17:16.350Z,40.39
2022-09-28T20:21:05.147Z,40.79
2022-09-28T20:24:41.804Z,40.76
2022-09-28T20:28:19.368Z,40.95
2022-09-28T20:31:58.279Z,40.83
2022-09-28T20:35:35.101Z,40.81
2022-09-28T20:39:13.890Z,40.59
2022-09-28T20:42:51.856Z,40.82
2022-09-28T20:46:30.115Z,40.98
2022-09-28T20:50:07.971Z,40.97
2022-09-28T20:53:54.325Z,41.44
2022-09-28T20:57:31.724Z,41.81
2022-09-28T21:01:17.546Z,41.67
2022-09-28T21:04:54.411Z,41.82
2022-09-28T21:08:31.664Z,41.93
2022-09-28T21:12:10.170Z,42.17
2022-09-28T21:15:48.966Z,42.24
2022-09-28T21:19:26.507Z,41.91
2022-09-28T21:23:03.519Z,42.15
2022-09-28T21:26:41.307Z,41.80
2022-09-28T21:30:19.462Z,41.93
2022-09-28T21:34:00.319Z,42.16
2022-09-28T21:37:34.402Z,42.00
2022-09-28T21:41:11.634Z,41.96
2022-09-28T21:44:49.268Z,42.06
2022-09-28T21:48:27.694Z,42.13
2022-09-28T21:52:06.482Z,42.12
2022-09-28T21:55:43.837Z,41.89
2022-09-28T21:59:21.710Z,41.76
2022-09-28T22:02:59.948Z,41.93
2022-09-28T22:06:37.418Z,41.79
2022-09-28T22:10:15.408Z,41.97
2022-09-28T22:13:55.529Z,42.08
2022-09-28T22:17:34.938Z,42.25
2022-09-28T22:21:15.798Z,42.52
2022-09-28T22:24:54.456Z,42.49
2022-09-28T22:28:31.795Z,42.64
2022-09-28T22:32:09.577Z,43.29
2022-09-28T22:35:49.508Z,42.91
2022-09-28T22:39:27.651Z,42.84
2022-09-28T22:43:04.553Z,43.10
2022-09-28T22:46:42.306Z,43.34
2022-09-28T22:50:20.282Z,43.32
2022-09-28T22:53:58.606Z,43.01
2022-09-28T22:57:36.535Z,42.92
2022-09-28T23:01:23.177Z,42.78
2022-09-28T23:05:01.037Z,42.42
2022-09-28T23:08:38.781Z,42.46
2022-09-28T23:12:16.153Z,42.47
2022-09-28T23:16:03.183Z,42.74
2022-09-28T23:19:41.979Z,42.87
2022-09-28T23:23:19.868Z,42.68
2022-09-28T23:26:58.177Z,42.11
2022-09-28T23:30:36.437Z,41.58
2022-09-28T23:34:14.026Z,41.59
2022-09-28T23:37:51.238Z,41.96
2022-09-28T23:41:29.613Z,41.54
2022-09-28T23:45:08.607Z,41.74
2022-09-28T23:48:46.517Z,41.83
2022-09-28T23:52:25.516Z,41.96
2022-09-28T23:56:02.420Z,41.58
2022-09-28T23:59:39.801Z,41.51
